createdAt,value
2022-11-03T00:02:14.292Z,4.90
2022-11-03T00:04:43.473Z,5.25
2022-11-03T00:07:11.804Z,4.85
2022-11-03T00:09:39.890Z,4.95
2022-11-03T00:12:08.617Z,5.10
2022-11-03T00:14:38.023Z,4.50
2022-11-03T00:17:06.074Z,4.78
2022-11-03T00:19:34.193Z,4.72
2022-11-03T00:22:02.239Z,4.70
2022-11-03T00:24:30.426Z,5.13
2022-11-03T00:26:58.539Z,5.38
2022-11-03T00:29:28.733Z,4.88
2022-11-03T00:31:58.183Z,4.68
2022-11-03T00:34:26.323Z,4.53
2022-11-03T00:36:56.767Z,4.43
2022-11-03T00:39:24.896Z,4.10
2022-11-03T00:41:53.616Z,4.57
2022-11-03T00:44:21.659Z,4.72
2022-11-03T00:46:49.725Z,4.75
2022-11-03T00:49:19.207Z,4.68
2022-11-03T00:51:47.293Z,4.90
2022-11-03T00:54:15.569Z,4.47
2022-11-03T00:56:44.294Z,4.70
2022-11-03T00:59:12.317Z,4.55
2022-11-03T01:01:45.998Z,4.75
2022-11-03T01:04:33.501Z,4.45
2022-11-03T01:07:04.107Z,4.53
2022-11-03T01:09:37.130Z,4.70
2022-11-03T01:12:08.053Z,4.60
2022-11-03T01:14:38.528Z,4.60
2022-11-03T01:17:07.643Z,4.07
2022-11-03T01:19:35.731Z,4.30
2022-11-03T01:22:09.530Z,4.95
2022-11-03T01:24:40.428Z,4.43
2022-11-03T01:27:08.740Z,4.55
2022-11-03T01:29:36.820Z,4.45
2022-11-03T01:32:05.022Z,4.20
2022-11-03T01:34:35.423Z,4.80
2022-11-03T01:37:04.979Z,4.18
2022-11-03T01:39:33.088Z,4.10
2022-11-03T01:42:01.165Z,4.65
2022-11-03T01:44:35.057Z,4.05
2022-11-03T01:47:08.616Z,3.78
2022-11-03T01:49:42.383Z,4.25
2022-11-03T01:52:18.278Z,4.38
2022-11-03T01:54:50.058Z,4.70
2022-11-03T01:57:23.425Z,3.78
2022-11-03T01:59:52.693Z,4.20
2022-11-03T02:02:26.549Z,3.97
2022-11-03T02:04:55.609Z,4.13
2022-11-03T02:07:29.300Z,4.32
2022-11-03T02:09:57.694Z,4.40
2022-11-03T02:12:26.027Z,4.15
2022-11-03T02:14:57.735Z,3.70
2022-11-03T02:17:37.790Z,3.90
2022-11-03T02:20:52.308Z,4.43
2022-11-03T02:23:41.975Z,4.38
2022-11-03T02:26:51.004Z,4.00
2022-11-03T02:29:19.339Z,4.30
2022-11-03T02:32:08.177Z,4.05
2022-11-03T02:41:11.135Z,4.68
2022-11-03T02:43:51.843Z,4.32
2022-11-03T02:46:35.720Z,4.38
2022-11-03T02:49:03.769Z,4.00
2022-11-03T02:51:31.815Z,4.03
2022-11-03T02:54:55.804Z,4.22
2022-11-03T02:57:36.392Z,4.47
2022-11-03T03:00:43.759Z,4.38
2022-11-03T03:10:34.899Z,3.92
2022-11-03T03:13:14.378Z,4.30
2022-11-03T03:16:01.582Z,4.40
2022-11-03T03:22:20.149Z,3.92
2022-11-03T03:25:07.083Z,4.22
2022-11-03T03:27:58.190Z,4.10
2022-11-03T03:30:40.220Z,4.07
2022-11-03T03:33:12.713Z,4.35
2022-11-03T03:36:28.526Z,4.68
2022-11-03T03:39:39.740Z,3.70
2022-11-03T03:42:20.913Z,3.95
2022-11-03T03:52:03.779Z,4.03
2022-11-03T03:58:28.513Z,4.00
2022-11-03T04:01:49.001Z,4.25
2022-11-03T04:08:11.175Z,3.53
2022-11-03T04:10:45.770Z,4.05
2022-11-03T04:14:12.618Z,4.05
2022-11-03T04:17:00.534Z,4.70
2022-11-03T04:20:23.274Z,4.50
2022-11-03T04:23:03.679Z,4.15
2022-11-03T04:25:50.787Z,4.38
2022-11-03T04:28:24.861Z,3.95
2022-11-03T04:31:08.968Z,4.05
2022-11-03T04:33:41.574Z,3.95
2022-11-03T04:36:31.426Z,3.65
2022-11-03T04:38:59.838Z,4.35
2022-11-03T04:41:55.729Z,3.70
2022-11-03T04:44:32.657Z,4.53
2022-11-03T04:47:27.197Z,3.70
2022-11-03T04:50:07.344Z,4.10
2022-11-03T04:52:35.736Z,3.88
2022-11-03T04:55:12.872Z,4.20
2022-11-03T05:06:13.307Z,4.47
2022-11-03T05:11:59.874Z,4.43
2022-11-03T05:18:48.531Z,5.18
2022-11-03T05:28:54.875Z,5.65
2022-11-03T05:31:26.957Z,4.25
2022-11-03T05:33:58.936Z,5.05
2022-11-03T05:36:30.286Z,4.70
2022-11-03T05:39:04.243Z,5.35
2022-11-03T05:41:36.192Z,5.07
2022-11-03T05:44:24.244Z,4.90
2022-11-03T05:46:52.308Z,4.63
2022-11-03T05:49:21.757Z,4.22
2022-11-03T05:51:50.517Z,5.00
2022-11-03T05:54:23.896Z,5.88
2022-11-03T05:56:52.174Z,4.95
2022-11-03T05:59:27.108Z,5.40
2022-11-03T06:02:00.328Z,4.95
2022-11-03T06:04:33.887Z,5.30
2022-11-03T06:07:04.740Z,5.35
2022-11-03T06:09:34.967Z,5.65
2022-11-03T06:12:07.343Z,5.72
2022-11-03T06:14:38.871Z,5.53
2022-11-03T06:17:11.750Z,5.57
2022-11-03T06:19:43.434Z,5.30
2022-11-03T06:22:19.950Z,6.10
2022-11-03T06:24:49.274Z,6.38
2022-11-03T06:27:23.731Z,6.35
2022-11-03T06:29:57.728Z,5.40
2022-11-03T06:32:27.794Z,6.22
2022-11-03T06:34:58.807Z,5.50
2022-11-03T06:37:28.831Z,6.18
2022-11-03T06:40:02.102Z,5.80
2022-11-03T06:42:34.219Z,6.20
2022-11-03T06:45:15.978Z,5.93
2022-11-03T06:47:44.195Z,6.43
2022-11-03T06:50:25.000Z,5.88
2022-11-03T06:52:54.614Z,5.95
2022-11-03T06:55:28.049Z,5.70
2022-11-03T06:58:00.238Z,5.72
2022-11-03T07:00:52.228Z,6.03
2022-11-03T07:03:26.752Z,6.35
2022-11-03T07:06:01.078Z,5.63
2022-11-03T07:08:33.056Z,6.30
2022-11-03T07:11:12.238Z,6.70
2022-11-03T07:13:40.539Z,6.68
2022-11-03T07:16:18.891Z,6.53
2022-11-03T07:18:52.760Z,6.28
2022-11-03T07:21:37.415Z,6.30
2022-11-03T07:24:17.439Z,6.78
2022-11-03T07:26:46.617Z,6.15
2022-11-03T07:29:21.223Z,5.75
2022-11-03T07:31:53.129Z,6.05
2022-11-03T07:34:25.136Z,6.30
2022-11-03T07:36:55.996Z,5.80
2022-11-03T07:39:36.267Z,5.50
2022-11-03T07:42:14.861Z,5.70
2022-11-03T07:44:43.335Z,6.00
2022-11-03T07:47:17.123Z,6.38
2022-11-03T07:49:46.102Z,6.78
2022-11-03T07:52:17.627Z,5.72
2022-11-03T07:54:45.965Z,6.03
2022-11-03T07:57:35.176Z,6.47
2022-11-03T08:00:10.321Z,6.28
2022-11-03T08:02:49.120Z,5.85
2022-11-03T08:07:50.801Z,5.20
2022-11-03T08:10:18.904Z,5.65
2022-11-03T08:12:49.239Z,5.53
2022-11-03T08:15:17.384Z,4.70
2022-11-03T08:17:48.749Z,5.45
2022-11-03T08:20:18.078Z,4.88
2022-11-03T08:22:59.181Z,4.85
2022-11-03T08:25:36.461Z,5.20
2022-11-03T08:28:04.857Z,4.70
2022-11-03T08:30:34.018Z,4.90
2022-11-03T08:33:03.575Z,4.68
2022-11-03T08:35:34.047Z,4.57
2022-11-03T08:38:07.012Z,4.38
2022-11-03T08:40:35.564Z,4.72
2022-11-03T08:43:04.098Z,3.88
2022-11-03T08:45:32.449Z,4.78
2022-11-03T08:48:00.745Z,3.70
2022-11-03T08:50:30.266Z,3.83
2022-11-03T08:53:00.830Z,4.53
2022-11-03T08:55:29.049Z,4.10
2022-11-03T08:57:57.190Z,3.97
2022-11-03T09:00:25.203Z,4.07
2022-11-03T09:02:53.208Z,4.13
2022-11-03T09:05:21.255Z,3.95
2022-11-03T09:10:42.301Z,4.60
2022-11-03T09:13:13.070Z,4.10
2022-11-03T09:15:41.287Z,4.55
2022-11-03T09:18:09.609Z,3.88
2022-11-03T09:20:47.181Z,3.42
2022-11-03T09:23:17.029Z,3.25
2022-11-03T09:25:45.100Z,3.60
2022-11-03T09:28:16.631Z,3.20
2022-11-03T09:30:48.000Z,2.92
2022-11-03T09:33:16.228Z,2.90
2022-11-03T09:35:44.448Z,2.00
2022-11-03T09:38:12.604Z,2.00
2022-11-03T09:40:42.515Z,1.83
2022-11-03T09:43:11.172Z,1.67
2022-11-03T09:45:40.083Z,2.47
2022-11-03T09:48:16.742Z,2.22
2022-11-03T09:50:45.043Z,1.93
2022-11-03T09:53:13.959Z,2.00
2022-11-03T09:55:43.535Z,2.40
2022-11-03T09:58:15.685Z,2.00
2022-11-03T10:00:44.587Z,2.67
2022-11-03T10:03:18.024Z,2.53
2022-11-03T10:05:47.192Z,2.15
2022-11-03T10:08:22.922Z,2.10
2022-11-03T10:10:53.565Z,2.20
2022-11-03T10:13:29.139Z,2.67
2022-11-03T10:15:57.951Z,2.28
2022-11-03T10:18:27.308Z,2.28
2022-11-03T10:20:59.695Z,2.80
2022-11-03T10:23:27.963Z,2.47
2022-11-03T10:26:09.654Z,2.30
2022-11-03T10:28:38.134Z,2.70
2022-11-03T10:31:20.356Z,2.70
2022-11-03T10:33:54.676Z,2.80
2022-11-03T10:36:27.572Z,2.55
2022-11-03T10:38:56.743Z,3.20
2022-11-03T10:41:27.882Z,2.47
2022-11-03T10:44:05.859Z,2.88
2022-11-03T10:46:51.493Z,2.83
2022-11-03T10:49:21.740Z,3.22
2022-11-03T10:51:52.423Z,2.70
2022-11-03T10:54:22.581Z,2.88
2022-11-03T10:56:53.085Z,2.90
2022-11-03T10:59:23.567Z,2.40
2022-11-03T11:01:52.256Z,2.80
2022-11-03T11:04:21.948Z,2.75
2022-11-03T11:06:50.169Z,3.00
2022-11-03T11:09:23.414Z,2.67
2022-11-03T11:12:06.493Z,2.78
2022-11-03T11:14:39.795Z,2.63
2022-11-03T11:17:42.069Z,3.15
2022-11-03T11:20:35.222Z,2.70
2022-11-03T11:23:49.117Z,2.60
2022-11-03T11:26:32.158Z,2.90
2022-11-03T11:29:43.832Z,2.70
2022-11-03T11:32:44.758Z,3.05
2022-11-03T11:35:18.961Z,2.90
2022-11-03T11:37:47.021Z,3.17
2022-11-03T11:40:35.979Z,3.10
2022-11-03T11:43:28.175Z,3.13
2022-11-03T11:46:33.526Z,2.78
2022-11-03T11:49:46.797Z,2.97
2022-11-03T11:52:19.238Z,2.63
2022-11-03T11:54:47.724Z,2.45
2022-11-03T11:57:21.151Z,2.78
2022-11-03T11:59:53.935Z,3.00
2022-11-03T12:02:25.286Z,2.80
2022-11-03T12:04:59.644Z,3.38
2022-11-03T12:07:36.723Z,2.65
2022-11-03T12:10:15.647Z,3.22
2022-11-03T12:12:43.831Z,2.70
2022-11-03T12:15:49.877Z,2.38
2022-11-03T12:18:40.021Z,2.85
2022-11-03T12:21:11.282Z,2.60
2022-11-03T12:23:43.890Z,2.88
2022-11-03T12:26:19.011Z,2.65
2022-11-03T12:28:47.239Z,2.95
2022-11-03T12:31:15.502Z,3.08
2022-11-03T12:33:43.744Z,3.10
2022-11-03T12:36:11.900Z,2.88
2022-11-03T12:38:41.515Z,3.00
2022-11-03T12:41:27.829Z,2.80
2022-11-03T12:43:56.894Z,3.40
2022-11-03T12:46:25.398Z,3.13
2022-11-03T12:48:53.579Z,2.97
2022-11-03T12:51:23.269Z,4.00
2022-11-03T12:53:53.113Z,2.95
2022-11-03T12:56:21.391Z,3.00
2022-11-03T12:58:49.564Z,3.20
2022-11-03T13:01:18.777Z,3.10
2022-11-03T13:03:46.928Z,2.92
2022-11-03T13:06:42.132Z,3.45
2022-11-03T13:09:16.174Z,2.85
2022-11-03T13:12:01.843Z,3.20
2022-11-03T13:14:30.062Z,3.47
2022-11-03T13:16:59.805Z,2.55
2022-11-03T13:19:35.620Z,3.25
2022-11-03T13:22:04.348Z,3.17
2022-11-03T13:24:36.194Z,3.65
2022-11-03T13:27:04.760Z,3.10
2022-11-03T13:29:35.743Z,2.90
2022-11-03T13:32:07.076Z,3.38
2022-11-03T13:34:35.504Z,3.42
2022-11-03T13:37:04.684Z,3.92
2022-11-03T13:39:33.144Z,3.55
2022-11-03T13:42:02.779Z,3.38
2022-11-03T13:44:31.044Z,3.33
2022-11-03T13:46:59.422Z,3.47
2022-11-03T13:52:15.632Z,3.45
2022-11-03T14:00:25.823Z,3.50
2022-11-03T14:05:43.295Z,3.80
2022-11-03T14:08:11.521Z,3.50
2022-11-03T14:10:39.742Z,3.70
2022-11-03T14:13:08.657Z,4.03
2022-11-03T14:15:37.184Z,4.43
2022-11-03T14:18:05.569Z,3.80
2022-11-03T14:20:33.744Z,3.97
2022-11-03T14:23:02.290Z,4.40
2022-11-03T14:25:30.522Z,3.47
2022-11-03T14:27:58.672Z,4.50
2022-11-03T14:30:28.314Z,4.80
2022-11-03T14:32:59.598Z,4.03
2022-11-03T14:35:28.024Z,4.32
2022-11-03T14:37:56.182Z,4.38
2022-11-03T14:40:46.961Z,4.78
2022-11-03T14:43:15.097Z,5.05
2022-11-03T14:45:46.786Z,5.78
2022-11-03T14:48:15.152Z,5.50
2022-11-03T14:50:43.569Z,5.50
2022-11-03T14:53:11.887Z,5.88
2022-11-03T14:55:41.318Z,5.15
2022-11-03T14:58:09.894Z,5.40
2022-11-03T15:00:38.140Z,5.30
2022-11-03T15:03:07.869Z,5.60
2022-11-03T15:05:47.752Z,6.10
2022-11-03T15:08:18.869Z,5.55
2022-11-03T15:10:47.213Z,6.00
2022-11-03T15:13:15.278Z,5.40
2022-11-03T15:15:43.373Z,5.70
2022-11-03T15:18:13.148Z,5.57
2022-11-03T15:20:41.488Z,6.47
2022-11-03T15:25:58.049Z,5.82
2022-11-03T15:28:26.100Z,6.03
2022-11-03T15:30:54.472Z,6.03
2022-11-03T15:33:24.152Z,5.82
2022-11-03T15:35:52.261Z,6.22
2022-11-03T15:38:22.843Z,6.22
2022-11-03T15:41:15.327Z,6.40
2022-11-03T15:43:43.975Z,6.13
2022-11-03T15:46:13.757Z,6.57
2022-11-03T15:48:43.679Z,6.38
2022-11-03T15:51:12.519Z,6.72
2022-11-03T15:53:44.176Z,6.90
2022-11-03T15:56:12.501Z,7.18
2022-11-03T15:58:40.709Z,6.35
2022-11-03T16:01:09.086Z,6.80
2022-11-03T16:03:37.185Z,6.20
2022-11-03T16:06:07.255Z,6.40
2022-11-03T16:08:35.412Z,6.90
2022-11-03T16:11:03.601Z,6.53
2022-11-03T16:13:31.777Z,7.10
2022-11-03T16:15:59.954Z,7.68
2022-11-03T16:18:28.135Z,6.78
2022-11-03T16:20:56.274Z,7.50
2022-11-03T16:23:25.947Z,6.47
2022-11-03T16:25:55.114Z,6.63
2022-11-03T16:28:23.739Z,7.10
2022-11-03T16:30:54.500Z,7.38
2022-11-03T16:33:23.065Z,6.90
2022-11-03T16:35:51.990Z,7.45
2022-11-03T16:38:20.723Z,7.25
2022-11-03T16:40:50.172Z,7.35
2022-11-03T16:43:18.297Z,7.43
2022-11-03T16:45:46.373Z,7.80
2022-11-03T16:48:14.620Z,8.32
2022-11-03T16:50:44.693Z,7.82
2022-11-03T16:53:13.310Z,8.32
2022-11-03T16:55:41.858Z,7.65
2022-11-03T16:58:12.567Z,7.38
2022-11-03T17:00:41.797Z,8.15
2022-11-03T17:03:10.626Z,7.90
2022-11-03T17:05:39.265Z,8.20
2022-11-03T17:08:25.630Z,7.85
2022-11-03T17:10:55.770Z,8.00
2022-11-03T17:13:25.286Z,7.88
2022-11-03T17:15:55.741Z,7.50
2022-11-03T17:18:24.092Z,7.82
2022-11-03T17:20:52.359Z,8.00
2022-11-03T17:23:20.466Z,8.70
2022-11-03T17:25:48.685Z,8.50
2022-11-03T17:28:18.803Z,8.13
2022-11-03T17:30:48.309Z,7.78
2022-11-03T17:33:19.613Z,8.55
2022-11-03T17:35:48.263Z,7.85
2022-11-03T17:38:18.365Z,8.25
2022-11-03T17:40:48.715Z,8.18
2022-11-03T17:43:22.141Z,7.93
2022-11-03T17:45:52.252Z,8.45
2022-11-03T17:48:22.601Z,8.43
2022-11-03T17:50:53.308Z,7.93
2022-11-03T17:53:24.116Z,7.75
2022-11-03T17:56:23.397Z,8.25
2022-11-03T17:58:46.577Z,7.93
2022-11-03T18:01:22.409Z,11.07
2022-11-03T18:03:52.026Z,7.97
2022-11-03T18:06:22.088Z,8.32
2022-11-03T18:08:51.153Z,7.93
2022-11-03T18:11:43.824Z,8.27
2022-11-03T18:14:12.267Z,7.50
2022-11-03T18:16:42.020Z,7.80
2022-11-03T18:19:12.949Z,7.25
2022-11-03T18:21:41.426Z,7.78
2022-11-03T18:24:14.323Z,8.82
2022-11-03T18:26:42.426Z,7.97
2022-11-03T18:29:10.833Z,7.07
2022-11-03T18:31:44.317Z,7.15
2022-11-03T18:34:16.509Z,6.78
2022-11-03T18:36:45.114Z,7.95
2022-11-03T18:39:18.971Z,8.60
2022-11-03T18:41:47.186Z,9.45
2022-11-03T18:44:19.609Z,13.23
2022-11-03T18:46:51.254Z,8.20
2022-11-03T18:49:20.425Z,7.53
2022-11-03T18:51:50.844Z,7.35
2022-11-03T18:54:21.551Z,15.63
2022-11-03T18:56:50.182Z,7.18
2022-11-03T18:59:24.075Z,6.70
2022-11-03T19:01:53.790Z,6.53
2022-11-03T19:04:22.492Z,6.85
2022-11-03T19:06:52.938Z,7.38
2022-11-03T19:09:24.479Z,6.38
2022-11-03T19:11:55.644Z,6.93
2022-11-03T19:14:27.457Z,6.28
2022-11-03T19:19:45.371Z,6.50
2022-11-03T19:22:17.765Z,6.25
2022-11-03T19:24:46.297Z,5.53
2022-11-03T19:27:18.228Z,6.25
2022-11-03T19:29:48.495Z,9.15
2022-11-03T19:32:23.727Z,5.95
2022-11-03T19:34:58.109Z,7.22
2022-11-03T19:37:30.984Z,6.20
2022-11-03T19:40:02.514Z,5.88
2022-11-03T19:42:31.276Z,6.03
2022-11-03T19:45:00.994Z,6.65
2022-11-03T19:47:34.660Z,5.60
2022-11-03T19:50:04.463Z,5.75
2022-11-03T19:52:33.565Z,5.55
2022-11-03T19:55:05.639Z,6.20
2022-11-03T19:57:36.168Z,6.00
2022-11-03T20:00:08.308Z,5.63
2022-11-03T20:02:37.939Z,5.20
2022-11-03T20:05:06.627Z,5.35
2022-11-03T20:07:35.052Z,5.50
2022-11-03T20:10:04.945Z,5.63
2022-11-03T20:12:33.169Z,5.22
2022-11-03T20:15:01.651Z,5.10
2022-11-03T20:17:29.749Z,5.60
2022-11-03T20:19:59.212Z,5.47
2022-11-03T20:22:31.162Z,4.72
2022-11-03T20:25:03.174Z,5.30
2022-11-03T20:27:34.020Z,5.65
2022-11-03T20:30:03.134Z,5.80
2022-11-03T20:32:31.401Z,5.75
2022-11-03T20:35:01.019Z,5.55
2022-11-03T20:37:29.160Z,5.65
2022-11-03T20:39:57.232Z,6.05
2022-11-03T20:42:27.634Z,4.90
2022-11-03T20:44:55.844Z,5.65
2022-11-03T20:47:24.060Z,5.88
2022-11-03T20:49:52.141Z,6.05
2022-11-03T20:52:21.614Z,5.82
2022-11-03T20:54:51.041Z,6.50
2022-11-03T20:57:19.325Z,6.00
2022-11-03T20:59:47.492Z,6.78
2022-11-03T21:02:15.617Z,6.68
2022-11-03T21:04:44.131Z,6.82
2022-11-03T21:07:13.819Z,6.57
2022-11-03T21:09:43.425Z,6.20
2022-11-03T21:12:14.510Z,6.90
2022-11-03T21:14:57.534Z,6.53
2022-11-03T21:17:43.239Z,5.78
2022-11-03T21:20:12.317Z,6.32
2022-11-03T21:22:57.429Z,6.07
2022-11-03T21:25:27.062Z,6.72
2022-11-03T21:27:55.718Z,6.35
2022-11-03T21:30:24.227Z,6.50
2022-11-03T21:32:52.509Z,7.57
2022-11-03T21:35:22.427Z,7.30
2022-11-03T21:37:50.634Z,7.63
2022-11-03T21:40:19.067Z,7.72
2022-11-03T21:43:06.093Z,8.13
2022-11-03T21:45:34.629Z,8.35
2022-11-03T21:48:20.852Z,7.80
2022-11-03T21:50:49.869Z,8.63
2022-11-03T21:53:20.296Z,9.35
2022-11-03T21:55:49.383Z,9.65
2022-11-03T21:58:18.794Z,9.70
2022-11-03T22:00:47.602Z,9.88
2022-11-03T22:03:17.274Z,10.05
2022-11-03T22:05:47.395Z,11.50
2022-11-03T22:08:15.474Z,10.55
2022-11-03T22:10:43.798Z,10.10
2022-11-03T22:13:12.260Z,10.82
2022-11-03T22:15:59.661Z,10.73
2022-11-03T22:18:27.738Z,11.63
2022-11-03T22:21:16.403Z,10.60
2022-11-03T22:24:06.380Z,10.80
2022-11-03T22:26:53.609Z,11.43
2022-11-03T22:29:39.082Z,12.20
2022-11-03T22:32:15.913Z,12.07
2022-11-03T22:35:01.609Z,11.80
2022-11-03T22:40:17.429Z,12.43
2022-11-03T22:43:03.649Z,11.48
2022-11-03T22:45:49.118Z,11.30
2022-11-03T22:48:19.147Z,11.95
2022-11-03T22:50:47.437Z,11.88
2022-11-03T22:53:32.902Z,12.35
2022-11-03T22:56:01.833Z,12.38
2022-11-03T22:58:30.889Z,12.70
2022-11-03T23:01:03.603Z,12.00
2022-11-03T23:03:34.267Z,12.20
2022-11-03T23:06:03.639Z,11.88
2022-11-03T23:08:33.041Z,11.88
2022-11-03T23:11:06.106Z,12.20
2022-11-03T23:13:34.279Z,11.48
2022-11-03T23:16:09.436Z,11.32
2022-11-03T23:18:56.245Z,10.90
2022-11-03T23:21:25.001Z,10.68
2022-11-03T23:24:10.544Z,10.15
2022-11-03T23:26:38.711Z,11.80
2022-11-03T23:29:07.299Z,10.63
2022-11-03T23:31:36.161Z,11.25
2022-11-03T23:34:06.183Z,10.88
2022-11-03T23:36:34.771Z,10.90
2022-11-03T23:39:03.357Z,10.98
2022-11-03T23:41:33.513Z,10.82
2022-11-03T23:44:01.635Z,10.90
2022-11-03T23:46:47.990Z,11.35
2022-11-03T23:49:19.961Z,10.48
2022-11-03T23:51:48.057Z,10.48
2022-11-03T23:54:16.099Z,9.75
2022-11-03T23:57:05.930Z,11.20
